sensor_id;sensor_type;location;lat;lon;timestamp;temperature;humidity
18934;DHT22;9599;53.706;10.384;2023-07-30T00:01:10;17.80;99.90
18934;DHT22;9599;53.706;10.384;2023-07-30T00:03:40;17.80;99.90
18934;DHT22;9599;53.706;10.384;2023-07-30T00:06:08;17.80;99.90
18934;DHT22;9599;53.706;10.384;2023-07-30T00:08:36;17.80;99.90
18934;DHT22;9599;53.706;10.384;2023-07-30T00:11:04;17.80;99.90
18934;DHT22;9599;53.706;10.384;2023-07-30T00:13:32;17.80;99.90
18934;DHT22;9599;53.706;10.384;2023-07-30T00:16:00;17.80;99.90
18934;DHT22;9599;53.706;10.384;2023-07-30T00:18:28;17.80;99.90
18934;DHT22;9599;53.706;10.384;2023-07-30T00:20:57;17.80;99.90
18934;DHT22;9599;53.706;10.384;2023-07-30T00:23:25;17.90;99.90
18934;DHT22;9599;53.706;10.384;2023-07-30T00:25:53;17.90;99.90
18934;DHT22;9599;53.706;10.384;2023-07-30T00:28:21;17.90;99.90
18934;DHT22;9599;53.706;10.384;2023-07-30T00:30:49;17.90;99.90
18934;DHT22;9599;53.706;10.384;2023-07-30T00:33:17;17.90;99.90
18934;DHT22;9599;53.706;10.384;2023-07-30T00:35:45;17.90;99.90
18934;DHT22;9599;53.706;10.384;2023-07-30T00:38:14;17.90;99.90
18934;DHT22;9599;53.706;10.384;2023-07-30T00:40:42;17.90;99.90
18934;DHT22;9599;53.706;10.384;2023-07-30T00:43:10;17.90;99.90
18934;DHT22;9599;53.706;10.384;2023-07-30T00:45:41;17.90;99.90
18934;DHT22;9599;53.706;10.384;2023-07-30T00:48:10;17.90;99.90
18934;DHT22;9599;53.706;10.384;2023-07-30T00:50:39;17.90;99.90
18934;DHT22;9599;53.706;10.384;2023-07-30T00:53:09;17.90;99.90
18934;DHT22;9599;53.706;10.384;2023-07-30T00:55:38;17.80;99.90
18934;DHT22;9599;53.706;10.384;2023-07-30T00:58:06;17.80;99.90
18934;DHT22;9599;53.706;10.384;2023-07-30T01:00:34;17.80;99.90
18934;DHT22;9599;53.706;10.384;2023-07-30T01:03:02;17.80;99.90
18934;DHT22;9599;53.706;10.384;2023-07-30T01:05:31;17.80;99.90
18934;DHT22;9599;53.706;10.384;2023-07-30T01:07:59;17.70;99.90
18934;DHT22;9599;53.706;10.384;2023-07-30T01:10:30;17.70;99.90
18934;DHT22;9599;53.706;10.384;2023-07-30T01:13:01;17.70;99.90
18934;DHT22;9599;53.706;10.384;2023-07-30T01:15:31;17.70;99.90
18934;DHT22;9599;53.706;10.384;2023-07-30T01:18:00;17.70;99.90
18934;DHT22;9599;53.706;10.384;2023-07-30T01:20:30;17.70;99.90
18934;DHT22;9599;53.706;10.384;2023-07-30T01:22:59;17.60;99.90
18934;DHT22;9599;53.706;10.384;2023-07-30T01:25:29;17.70;99.90
18934;DHT22;9599;53.706;10.384;2023-07-30T01:28:00;17.70;99.90
18934;DHT22;9599;53.706;10.384;2023-07-30T01:30:32;17.70;99.90
18934;DHT22;9599;53.706;10.384;2023-07-30T01:33:01;17.70;99.90
18934;DHT22;9599;53.706;10.384;2023-07-30T01:35:31;17.80;99.90
18934;DHT22;9599;53.706;10.384;2023-07-30T01:38:01;17.80;99.90
18934;DHT22;9599;53.706;10.384;2023-07-30T01:40:32;17.90;99.90
18934;DHT22;9599;53.706;10.384;2023-07-30T01:43:00;17.80;99.90
18934;DHT22;9599;53.706;10.384;2023-07-30T01:45:28;17.80;99.90
18934;DHT22;9599;53.706;10.384;2023-07-30T01:47:56;17.80;99.90
18934;DHT22;9599;53.706;10.384;2023-07-30T01:50:25;17.80;99.90
18934;DHT22;9599;53.706;10.384;2023-07-30T01:52:52;17.70;99.90
18934;DHT22;9599;53.706;10.384;2023-07-30T01:55:22;17.60;99.90
18934;DHT22;9599;53.706;10.384;2023-07-30T01:57:50;17.60;99.90
18934;DHT22;9599;53.706;10.384;2023-07-30T02:00:18;17.60;99.90
18934;DHT22;9599;53.706;10.384;2023-07-30T02:02:46;17.40;99.90
18934;DHT22;9599;53.706;10.384;2023-07-30T02:05:14;17.40;99.90
18934;DHT22;9599;53.706;10.384;2023-07-30T02:07:44;17.40;99.90
18934;DHT22;9599;53.706;10.384;2023-07-30T02:10:12;17.40;99.90
18934;DHT22;9599;53.706;10.384;2023-07-30T02:12:41;17.30;99.90
18934;DHT22;9599;53.706;10.384;2023-07-30T02:15:10;17.20;99.90
18934;DHT22;9599;53.706;10.384;2023-07-30T02:17:38;17.20;99.90
18934;DHT22;9599;53.706;10.384;2023-07-30T02:20:08;17.20;99.90
18934;DHT22;9599;53.706;10.384;2023-07-30T02:22:36;17.20;99.90
18934;DHT22;9599;53.706;10.384;2023-07-30T02:25:05;17.10;99.90
18934;DHT22;9599;53.706;10.384;2023-07-30T02:27:33;17.10;99.90
18934;DHT22;9599;53.706;10.384;2023-07-30T02:30:03;17.10;99.90
18934;DHT22;9599;53.706;10.384;2023-07-30T02:32:32;17.00;99.90
18934;DHT22;9599;53.706;10.384;2023-07-30T02:35:00;17.10;99.90
18934;DHT22;9599;53.706;10.384;2023-07-30T02:37:29;17.00;99.90
18934;DHT22;9599;53.706;10.384;2023-07-30T02:39:56;17.00;99.90
18934;DHT22;9599;53.706;10.384;2023-07-30T02:42:26;17.00;99.90
18934;DHT22;9599;53.706;10.384;2023-07-30T02:44:54;17.00;99.90
18934;DHT22;9599;53.706;10.384;2023-07-30T02:47:23;16.90;99.90
18934;DHT22;9599;53.706;10.384;2023-07-30T02:49:51;16.90;99.90
18934;DHT22;9599;53.706;10.384;2023-07-30T02:52:19;16.90;99.90
18934;DHT22;9599;53.706;10.384;2023-07-30T02:54:47;16.80;99.90
18934;DHT22;9599;53.706;10.384;2023-07-30T02:57:15;16.80;99.90
18934;DHT22;9599;53.706;10.384;2023-07-30T02:59:43;16.80;99.90
18934;DHT22;9599;53.706;10.384;2023-07-30T03:02:11;16.70;99.90
18934;DHT22;9599;53.706;10.384;2023-07-30T03:04:40;16.70;99.90
18934;DHT22;9599;53.706;10.384;2023-07-30T03:07:09;16.70;99.90
18934;DHT22;9599;53.706;10.384;2023-07-30T03:09:37;16.70;99.90
18934;DHT22;9599;53.706;10.384;2023-07-30T03:12:06;16.60;99.90
18934;DHT22;9599;53.706;10.384;2023-07-30T03:14:33;16.60;99.90
18934;DHT22;9599;53.706;10.384;2023-07-30T03:17:02;16.70;99.90
18934;DHT22;9599;53.706;10.384;2023-07-30T03:19:33;16.60;99.90
18934;DHT22;9599;53.706;10.384;2023-07-30T03:22:02;16.70;99.90
18934;DHT22;9599;53.706;10.384;2023-07-30T03:24:30;16.60;99.90
18934;DHT22;9599;53.706;10.384;2023-07-30T03:26:58;16.60;99.90
18934;DHT22;9599;53.706;10.384;2023-07-30T03:29:27;16.60;99.90
18934;DHT22;9599;53.706;10.384;2023-07-30T03:31:54;16.60;99.90
18934;DHT22;9599;53.706;10.384;2023-07-30T03:34:26;16.60;99.90
18934;DHT22;9599;53.706;10.384;2023-07-30T03:36:54;16.60;99.90
18934;DHT22;9599;53.706;10.384;2023-07-30T03:39:24;16.50;99.90
18934;DHT22;9599;53.706;10.384;2023-07-30T03:41:52;16.50;99.90
18934;DHT22;9599;53.706;10.384;2023-07-30T03:44:21;16.50;99.90
18934;DHT22;9599;53.706;10.384;2023-07-30T03:46:49;16.50;99.90
18934;DHT22;9599;53.706;10.384;2023-07-30T03:49:18;16.50;99.90
18934;DHT22;9599;53.706;10.384;2023-07-30T03:51:47;16.50;99.90
18934;DHT22;9599;53.706;10.384;2023-07-30T03:54:16;16.50;99.90
18934;DHT22;9599;53.706;10.384;2023-07-30T03:56:45;16.50;99.90
18934;DHT22;9599;53.706;10.384;2023-07-30T03:59:13;16.60;99.90
18934;DHT22;9599;53.706;10.384;2023-07-30T04:01:42;16.60;99.90
18934;DHT22;9599;53.706;10.384;2023-07-30T04:04:10;16.60;99.90
18934;DHT22;9599;53.706;10.384;2023-07-30T04:06:38;16.60;99.90
18934;DHT22;9599;53.706;10.384;2023-07-30T04:09:06;16.60;99.90
18934;DHT22;9599;53.706;10.384;2023-07-30T04:11:34;16.60;99.90
18934;DHT22;9599;53.706;10.384;2023-07-30T04:14:05;16.60;99.90
18934;DHT22;9599;53.706;10.384;2023-07-30T04:16:34;16.60;99.90
18934;DHT22;9599;53.706;10.384;2023-07-30T04:19:02;16.60;99.90
18934;DHT22;9599;53.706;10.384;2023-07-30T04:21:30;16.60;99.90
18934;DHT22;9599;53.706;10.384;2023-07-30T04:23:58;16.70;99.90
18934;DHT22;9599;53.706;10.384;2023-07-30T04:26:27;16.70;99.90
18934;DHT22;9599;53.706;10.384;2023-07-30T04:28:55;16.70;99.90
18934;DHT22;9599;53.706;10.384;2023-07-30T04:31:24;16.70;99.90
18934;DHT22;9599;53.706;10.384;2023-07-30T04:33:52;16.80;99.90
18934;DHT22;9599;53.706;10.384;2023-07-30T04:36:20;16.80;99.90
18934;DHT22;9599;53.706;10.384;2023-07-30T04:38:49;16.90;99.90
18934;DHT22;9599;53.706;10.384;2023-07-30T04:41:18;16.90;99.90
18934;DHT22;9599;53.706;10.384;2023-07-30T04:43:53;17.00;99.90
18934;DHT22;9599;53.706;10.384;2023-07-30T04:46:21;17.00;99.90
18934;DHT22;9599;53.706;10.384;2023-07-30T04:48:51;17.10;99.90
18934;DHT22;9599;53.706;10.384;2023-07-30T04:51:19;17.10;99.90
18934;DHT22;9599;53.706;10.384;2023-07-30T04:53:47;17.20;99.90
18934;DHT22;9599;53.706;10.384;2023-07-30T04:56:15;17.20;99.90
18934;DHT22;9599;53.706;10.384;2023-07-30T04:58:43;17.20;99.90
18934;DHT22;9599;53.706;10.384;2023-07-30T05:01:11;17.20;99.90
18934;DHT22;9599;53.706;10.384;2023-07-30T05:03:39;17.30;99.90
18934;DHT22;9599;53.706;10.384;2023-07-30T05:06:09;17.30;99.90
18934;DHT22;9599;53.706;10.384;2023-07-30T05:08:37;17.30;99.90
18934;DHT22;9599;53.706;10.384;2023-07-30T05:11:05;17.40;99.90
18934;DHT22;9599;53.706;10.384;2023-07-30T05:13:33;17.50;99.90
18934;DHT22;9599;53.706;10.384;2023-07-30T05:16:01;17.50;99.90
18934;DHT22;9599;53.706;10.384;2023-07-30T05:18:29;17.50;99.90
18934;DHT22;9599;53.706;10.384;2023-07-30T05:20:57;17.60;99.90
18934;DHT22;9599;53.706;10.384;2023-07-30T05:23:26;17.70;99.90
18934;DHT22;9599;53.706;10.384;2023-07-30T05:25:54;17.80;99.90
18934;DHT22;9599;53.706;10.384;2023-07-30T05:28:22;17.90;99.90
18934;DHT22;9599;53.706;10.384;2023-07-30T05:30:50;18.00;99.90
18934;DHT22;9599;53.706;10.384;2023-07-30T05:33:18;18.10;99.90
18934;DHT22;9599;53.706;10.384;2023-07-30T05:35:46;18.20;99.90
18934;DHT22;9599;53.706;10.384;2023-07-30T05:38:14;18.30;99.90
18934;DHT22;9599;53.706;10.384;2023-07-30T05:40:43;18.50;99.90
18934;DHT22;9599;53.706;10.384;2023-07-30T05:43:11;18.50;99.90
18934;DHT22;9599;53.706;10.384;2023-07-30T05:45:39;18.60;99.90
18934;DHT22;9599;53.706;10.384;2023-07-30T05:48:07;18.70;99.90
18934;DHT22;9599;53.706;10.384;2023-07-30T05:50:35;18.70;99.90
18934;DHT22;9599;53.706;10.384;2023-07-30T05:53:03;18.70;99.90
18934;DHT22;9599;53.706;10.384;2023-07-30T05:55:31;18.80;99.90
18934;DHT22;9599;53.706;10.384;2023-07-30T05:58:01;18.80;99.90
18934;DHT22;9599;53.706;10.384;2023-07-30T06:00:29;18.80;99.90
18934;DHT22;9599;53.706;10.384;2023-07-30T06:02:56;18.90;99.90
18934;DHT22;9599;53.706;10.384;2023-07-30T06:05:25;19.00;99.90
18934;DHT22;9599;53.706;10.384;2023-07-30T06:07:52;19.00;99.90
18934;DHT22;9599;53.706;10.384;2023-07-30T06:10:20;19.20;99.90
18934;DHT22;9599;53.706;10.384;2023-07-30T06:12:48;19.30;99.90
18934;DHT22;9599;53.706;10.384;2023-07-30T06:15:18;19.50;99.90
18934;DHT22;9599;53.706;10.384;2023-07-30T06:17:46;19.60;99.90
18934;DHT22;9599;53.706;10.384;2023-07-30T06:20:16;19.70;99.90
18934;DHT22;9599;53.706;10.384;2023-07-30T06:22:46;19.70;99.90
18934;DHT22;9599;53.706;10.384;2023-07-30T06:25:14;19.70;99.90
18934;DHT22;9599;53.706;10.384;2023-07-30T06:27:43;19.80;99.90
18934;DHT22;9599;53.706;10.384;2023-07-30T06:30:11;20.00;99.90
18934;DHT22;9599;53.706;10.384;2023-07-30T06:32:40;20.20;99.90
18934;DHT22;9599;53.706;10.384;2023-07-30T06:35:08;20.30;99.90
18934;DHT22;9599;53.706;10.384;2023-07-30T06:37:37;20.20;99.90
18934;DHT22;9599;53.706;10.384;2023-07-30T06:40:06;20.10;99.90
18934;DHT22;9599;53.706;10.384;2023-07-30T06:42:34;20.20;99.90
18934;DHT22;9599;53.706;10.384;2023-07-30T06:45:03;20.30;99.90
18934;DHT22;9599;53.706;10.384;2023-07-30T06:47:31;20.30;99.90
18934;DHT22;9599;53.706;10.384;2023-07-30T06:50:05;20.20;99.90
18934;DHT22;9599;53.706;10.384;2023-07-30T06:52:35;20.30;99.90
18934;DHT22;9599;53.706;10.384;2023-07-30T06:55:03;20.40;99.90
18934;DHT22;9599;53.706;10.384;2023-07-30T06:57:31;20.40;99.90
18934;DHT22;9599;53.706;10.384;2023-07-30T06:59:59;20.30;99.90
18934;DHT22;9599;53.706;10.384;2023-07-30T07:02:27;20.20;99.90
18934;DHT22;9599;53.706;10.384;2023-07-30T07:04:55;20.40;99.90
18934;DHT22;9599;53.706;10.384;2023-07-30T07:07:25;20.90;99.90
18934;DHT22;9599;53.706;10.384;2023-07-30T07:09:53;21.10;99.90
18934;DHT22;9599;53.706;10.384;2023-07-30T07:12:20;21.20;99.90
18934;DHT22;9599;53.706;10.384;2023-07-30T07:14:48;21.40;99.90
18934;DHT22;9599;53.706;10.384;2023-07-30T07:17:16;21.60;99.90
18934;DHT22;9599;53.706;10.384;2023-07-30T07:19:44;21.70;99.90
18934;DHT22;9599;53.706;10.384;2023-07-30T07:22:12;21.70;99.90
18934;DHT22;9599;53.706;10.384;2023-07-30T07:24:42;22.00;99.90
18934;DHT22;9599;53.706;10.384;2023-07-30T07:27:10;22.10;99.90
18934;DHT22;9599;53.706;10.384;2023-07-30T07:29:38;22.10;99.90
18934;DHT22;9599;53.706;10.384;2023-07-30T07:32:06;21.80;99.90
18934;DHT22;9599;53.706;10.384;2023-07-30T07:34:34;22.00;99.90
18934;DHT22;9599;53.706;10.384;2023-07-30T07:37:02;22.00;99.90
18934;DHT22;9599;53.706;10.384;2023-07-30T07:39:32;22.00;99.90
18934;DHT22;9599;53.706;10.384;2023-07-30T07:42:01;22.10;99.90
18934;DHT22;9599;53.706;10.384;2023-07-30T07:44:29;22.10;99.90
18934;DHT22;9599;53.706;10.384;2023-07-30T07:46:57;22.10;99.90
18934;DHT22;9599;53.706;10.384;2023-07-30T07:49:25;22.20;99.90
18934;DHT22;9599;53.706;10.384;2023-07-30T07:51:52;22.00;99.90
18934;DHT22;9599;53.706;10.384;2023-07-30T07:54:21;22.00;99.90
18934;DHT22;9599;53.706;10.384;2023-07-30T07:56:48;22.10;99.90
18934;DHT22;9599;53.706;10.384;2023-07-30T07:59:18;22.40;99.90
18934;DHT22;9599;53.706;10.384;2023-07-30T08:01:46;22.50;99.90
18934;DHT22;9599;53.706;10.384;2023-07-30T08:04:14;22.40;99.90
18934;DHT22;9599;53.706;10.384;2023-07-30T08:06:42;22.30;99.90
18934;DHT22;9599;53.706;10.384;2023-07-30T08:09:10;22.00;99.90
18934;DHT22;9599;53.706;10.384;2023-07-30T08:11:39;21.80;99.90
18934;DHT22;9599;53.706;10.384;2023-07-30T08:14:06;21.90;99.90
18934;DHT22;9599;53.706;10.384;2023-07-30T08:16:36;22.00;99.90
18934;DHT22;9599;53.706;10.384;2023-07-30T08:19:04;21.90;99.90
18934;DHT22;9599;53.706;10.384;2023-07-30T08:21:32;22.00;99.90
18934;DHT22;9599;53.706;10.384;2023-07-30T08:24:00;22.30;99.90
18934;DHT22;9599;53.706;10.384;2023-07-30T08:26:30;22.40;99.90
18934;DHT22;9599;53.706;10.384;2023-07-30T08:28:59;22.70;99.90
18934;DHT22;9599;53.706;10.384;2023-07-30T08:31:27;22.80;99.90
18934;DHT22;9599;53.706;10.384;2023-07-30T08:33:56;22.90;99.90
18934;DHT22;9599;53.706;10.384;2023-07-30T08:36:26;23.00;99.90
18934;DHT22;9599;53.706;10.384;2023-07-30T08:38:54;22.90;99.90
18934;DHT22;9599;53.706;10.384;2023-07-30T08:41:24;22.90;99.90
18934;DHT22;9599;53.706;10.384;2023-07-30T08:43:52;23.10;99.90
18934;DHT22;9599;53.706;10.384;2023-07-30T08:46:20;23.10;99.90
18934;DHT22;9599;53.706;10.384;2023-07-30T08:48:48;23.20;99.90
18934;DHT22;9599;53.706;10.384;2023-07-30T08:51:19;23.60;99.90
18934;DHT22;9599;53.706;10.384;2023-07-30T08:53:47;23.40;99.90
18934;DHT22;9599;53.706;10.384;2023-07-30T08:56:16;23.20;99.90
18934;DHT22;9599;53.706;10.384;2023-07-30T08:58:45;23.30;99.90
18934;DHT22;9599;53.706;10.384;2023-07-30T09:01:14;23.30;99.90
18934;DHT22;9599;53.706;10.384;2023-07-30T09:03:44;23.30;99.90
18934;DHT22;9599;53.706;10.384;2023-07-30T09:06:12;23.30;99.90
18934;DHT22;9599;53.706;10.384;2023-07-30T09:08:41;23.40;99.90
18934;DHT22;9599;53.706;10.384;2023-07-30T09:11:10;23.60;99.90
18934;DHT22;9599;53.706;10.384;2023-07-30T09:13:39;23.70;99.90
18934;DHT22;9599;53.706;10.384;2023-07-30T09:16:11;23.90;99.90
18934;DHT22;9599;53.706;10.384;2023-07-30T09:18:40;24.00;99.90
18934;DHT22;9599;53.706;10.384;2023-07-30T09:21:10;24.20;99.90
18934;DHT22;9599;53.706;10.384;2023-07-30T09:23:44;24.30;99.90
18934;DHT22;9599;53.706;10.384;2023-07-30T09:26:14;24.50;99.90
18934;DHT22;9599;53.706;10.384;2023-07-30T09:28:42;24.80;99.90
18934;DHT22;9599;53.706;10.384;2023-07-30T09:31:10;24.90;99.90
18934;DHT22;9599;53.706;10.384;2023-07-30T09:33:48;25.00;99.90
18934;DHT22;9599;53.706;10.384;2023-07-30T09:36:19;25.00;99.90
18934;DHT22;9599;53.706;10.384;2023-07-30T09:38:49;24.70;99.90
18934;DHT22;9599;53.706;10.384;2023-07-30T09:41:17;24.60;99.90
18934;DHT22;9599;53.706;10.384;2023-07-30T09:43:45;24.40;99.90
18934;DHT22;9599;53.706;10.384;2023-07-30T09:46:13;23.90;99.90
18934;DHT22;9599;53.706;10.384;2023-07-30T09:48:41;23.70;99.90
18934;DHT22;9599;53.706;10.384;2023-07-30T09:51:09;23.50;99.90
18934;DHT22;9599;53.706;10.384;2023-07-30T09:53:37;23.40;99.90
18934;DHT22;9599;53.706;10.384;2023-07-30T09:56:07;23.40;99.90
18934;DHT22;9599;53.706;10.384;2023-07-30T09:58:36;23.20;99.90
18934;DHT22;9599;53.706;10.384;2023-07-30T10:01:05;23.20;99.90
18934;DHT22;9599;53.706;10.384;2023-07-30T10:03:35;23.30;99.90
18934;DHT22;9599;53.706;10.384;2023-07-30T10:06:05;23.30;99.90
18934;DHT22;9599;53.706;10.384;2023-07-30T10:08:37;23.40;99.90
18934;DHT22;9599;53.706;10.384;2023-07-30T10:11:08;23.50;99.90
18934;DHT22;9599;53.706;10.384;2023-07-30T10:13:38;23.60;99.90
18934;DHT22;9599;53.706;10.384;2023-07-30T10:16:09;23.90;99.90
18934;DHT22;9599;53.706;10.384;2023-07-30T10:18:38;24.10;99.90
18934;DHT22;9599;53.706;10.384;2023-07-30T10:21:08;24.20;99.90
18934;DHT22;9599;53.706;10.384;2023-07-30T10:23:45;24.10;99.90
18934;DHT22;9599;53.706;10.384;2023-07-30T10:26:14;24.10;99.90
18934;DHT22;9599;53.706;10.384;2023-07-30T10:28:42;24.00;99.90
18934;DHT22;9599;53.706;10.384;2023-07-30T10:31:10;23.70;99.90
18934;DHT22;9599;53.706;10.384;2023-07-30T10:33:45;23.80;99.90
18934;DHT22;9599;53.706;10.384;2023-07-30T10:36:13;23.70;99.90
18934;DHT22;9599;53.706;10.384;2023-07-30T10:38:42;23.60;99.90
18934;DHT22;9599;53.706;10.384;2023-07-30T10:41:12;23.40;99.90
18934;DHT22;9599;53.706;10.384;2023-07-30T10:43:45;23.30;99.90
18934;DHT22;9599;53.706;10.384;2023-07-30T10:46:16;23.30;99.90
18934;DHT22;9599;53.706;10.384;2023-07-30T10:48:46;23.30;99.90
18934;DHT22;9599;53.706;10.384;2023-07-30T10:51:15;23.30;99.90
18934;DHT22;9599;53.706;10.384;2023-07-30T10:53:44;23.10;99.90
18934;DHT22;9599;53.706;10.384;2023-07-30T10:56:12;23.00;99.90
18934;DHT22;9599;53.706;10.384;2023-07-30T10:58:42;22.80;99.90
18934;DHT22;9599;53.706;10.384;2023-07-30T11:01:10;22.90;99.90
18934;DHT22;9599;53.706;10.384;2023-07-30T11:03:38;23.00;99.90
18934;DHT22;9599;53.706;10.384;2023-07-30T11:06:06;23.00;99.90
18934;DHT22;9599;53.706;10.384;2023-07-30T11:08:36;23.00;99.90
18934;DHT22;9599;53.706;10.384;2023-07-30T11:11:06;23.00;99.90
18934;DHT22;9599;53.706;10.384;2023-07-30T11:13:35;22.90;99.90
18934;DHT22;9599;53.706;10.384;2023-07-30T11:16:06;22.90;99.90
18934;DHT22;9599;53.706;10.384;2023-07-30T11:18:35;22.80;99.90
18934;DHT22;9599;53.706;10.384;2023-07-30T11:21:04;23.00;99.90
18934;DHT22;9599;53.706;10.384;2023-07-30T11:23:33;23.10;99.90
18934;DHT22;9599;53.706;10.384;2023-07-30T11:26:02;23.10;99.90
18934;DHT22;9599;53.706;10.384;2023-07-30T11:28:32;23.10;99.90
18934;DHT22;9599;53.706;10.384;2023-07-30T11:31:06;23.00;99.90
18934;DHT22;9599;53.706;10.384;2023-07-30T11:33:36;22.90;99.90
18934;DHT22;9599;53.706;10.384;2023-07-30T11:36:04;22.90;99.90
18934;DHT22;9599;53.706;10.384;2023-07-30T11:38:34;23.00;99.90
18934;DHT22;9599;53.706;10.384;2023-07-30T11:41:03;23.20;99.90
18934;DHT22;9599;53.706;10.384;2023-07-30T11:43:32;23.30;99.90
18934;DHT22;9599;53.706;10.384;2023-07-30T11:46:12;23.40;99.90
18934;DHT22;9599;53.706;10.384;2023-07-30T11:48:42;23.50;99.90
18934;DHT22;9599;53.706;10.384;2023-07-30T11:51:24;23.60;99.90
18934;DHT22;9599;53.706;10.384;2023-07-30T11:53:53;23.80;99.90
18934;DHT22;9599;53.706;10.384;2023-07-30T11:56:23;23.90;99.90
18934;DHT22;9599;53.706;10.384;2023-07-30T11:58:56;23.90;99.90
18934;DHT22;9599;53.706;10.384;2023-07-30T12:01:28;23.90;99.90
18934;DHT22;9599;53.706;10.384;2023-07-30T12:03:57;23.60;99.90
18934;DHT22;9599;53.706;10.384;2023-07-30T12:06:38;23.40;99.90
18934;DHT22;9599;53.706;10.384;2023-07-30T12:09:10;23.30;99.90
18934;DHT22;9599;53.706;10.384;2023-07-30T12:11:45;23.10;99.90
18934;DHT22;9599;53.706;10.384;2023-07-30T12:14:14;22.80;99.90
18934;DHT22;9599;53.706;10.384;2023-07-30T12:16:43;22.90;99.90
18934;DHT22;9599;53.706;10.384;2023-07-30T12:19:11;23.20;99.90
18934;DHT22;9599;53.706;10.384;2023-07-30T12:21:39;23.40;99.90
18934;DHT22;9599;53.706;10.384;2023-07-30T12:24:08;23.70;99.90
18934;DHT22;9599;53.706;10.384;2023-07-30T12:26:36;23.90;99.90
18934;DHT22;9599;53.706;10.384;2023-07-30T12:29:04;24.00;99.90
18934;DHT22;9599;53.706;10.384;2023-07-30T12:31:32;24.30;99.90
18934;DHT22;9599;53.706;10.384;2023-07-30T12:34:01;24.20;99.90
18934;DHT22;9599;53.706;10.384;2023-07-30T12:36:29;24.00;99.90
18934;DHT22;9599;53.706;10.384;2023-07-30T12:38:57;23.80;99.90
18934;DHT22;9599;53.706;10.384;2023-07-30T12:41:25;23.80;99.90
18934;DHT22;9599;53.706;10.384;2023-07-30T12:43:54;23.60;99.90
18934;DHT22;9599;53.706;10.384;2023-07-30T12:46:23;23.60;99.90
18934;DHT22;9599;53.706;10.384;2023-07-30T12:48:53;23.40;99.90
18934;DHT22;9599;53.706;10.384;2023-07-30T12:51:23;23.30;99.90
18934;DHT22;9599;53.706;10.384;2023-07-30T12:53:52;23.40;99.90
18934;DHT22;9599;53.706;10.384;2023-07-30T12:56:20;23.70;99.90
18934;DHT22;9599;53.706;10.384;2023-07-30T12:58:48;23.90;99.90
18934;DHT22;9599;53.706;10.384;2023-07-30T13:01:16;24.00;99.90
18934;DHT22;9599;53.706;10.384;2023-07-30T13:03:44;23.90;99.90
18934;DHT22;9599;53.706;10.384;2023-07-30T13:06:13;23.90;99.90
18934;DHT22;9599;53.706;10.384;2023-07-30T13:08:43;24.00;99.90
18934;DHT22;9599;53.706;10.384;2023-07-30T13:11:11;24.10;99.90
18934;DHT22;9599;53.706;10.384;2023-07-30T13:13:39;24.00;99.90
18934;DHT22;9599;53.706;10.384;2023-07-30T13:16:07;24.00;99.90
18934;DHT22;9599;53.706;10.384;2023-07-30T13:18:35;24.20;99.90
18934;DHT22;9599;53.706;10.384;2023-07-30T13:21:03;24.20;99.90
18934;DHT22;9599;53.706;10.384;2023-07-30T13:23:31;23.80;99.90
18934;DHT22;9599;53.706;10.384;2023-07-30T13:26:01;23.50;99.90
18934;DHT22;9599;53.706;10.384;2023-07-30T13:28:29;23.30;99.90
18934;DHT22;9599;53.706;10.384;2023-07-30T13:30:57;23.10;99.90
18934;DHT22;9599;53.706;10.384;2023-07-30T13:33:25;22.90;99.90
18934;DHT22;9599;53.706;10.384;2023-07-30T13:35:53;22.70;99.90
18934;DHT22;9599;53.706;10.384;2023-07-30T13:38:21;22.50;99.90
18934;DHT22;9599;53.706;10.384;2023-07-30T13:40:49;22.30;99.90
18934;DHT22;9599;53.706;10.384;2023-07-30T13:43:19;22.20;99.90
18934;DHT22;9599;53.706;10.384;2023-07-30T13:45:47;21.90;99.90
18934;DHT22;9599;53.706;10.384;2023-07-30T13:48:17;21.40;99.90
18934;DHT22;9599;53.706;10.384;2023-07-30T13:50:45;20.00;99.90
18934;DHT22;9599;53.706;10.384;2023-07-30T13:53:13;19.10;99.90
18934;DHT22;9599;53.706;10.384;2023-07-30T13:55:40;18.60;99.90
18934;DHT22;9599;53.706;10.384;2023-07-30T13:58:08;18.20;99.90
18934;DHT22;9599;53.706;10.384;2023-07-30T14:00:41;17.90;99.90
18934;DHT22;9599;53.706;10.384;2023-07-30T14:03:09;17.70;99.90
18934;DHT22;9599;53.706;10.384;2023-07-30T14:05:38;17.60;99.90
18934;DHT22;9599;53.706;10.384;2023-07-30T14:08:06;17.40;99.90
18934;DHT22;9599;53.706;10.384;2023-07-30T14:10:34;17.30;99.90
18934;DHT22;9599;53.706;10.384;2023-07-30T14:13:02;17.30;99.90
18934;DHT22;9599;53.706;10.384;2023-07-30T14:15:31;17.50;99.90
18934;DHT22;9599;53.706;10.384;2023-07-30T14:18:00;17.60;99.90
18934;DHT22;9599;53.706;10.384;2023-07-30T14:20:29;17.70;99.90
18934;DHT22;9599;53.706;10.384;2023-07-30T14:22:57;17.80;99.90
18934;DHT22;9599;53.706;10.384;2023-07-30T14:25:28;18.00;99.90
18934;DHT22;9599;53.706;10.384;2023-07-30T14:27:56;18.00;99.90
18934;DHT22;9599;53.706;10.384;2023-07-30T14:30:24;18.00;99.90
18934;DHT22;9599;53.706;10.384;2023-07-30T14:32:52;18.00;99.90
18934;DHT22;9599;53.706;10.384;2023-07-30T14:35:21;18.20;99.90
18934;DHT22;9599;53.706;10.384;2023-07-30T14:37:50;18.30;99.90
18934;DHT22;9599;53.706;10.384;2023-07-30T14:40:18;18.20;99.90
18934;DHT22;9599;53.706;10.384;2023-07-30T14:42:46;18.20;99.90
18934;DHT22;9599;53.706;10.384;2023-07-30T14:45:14;18.30;99.90
18934;DHT22;9599;53.706;10.384;2023-07-30T14:47:42;18.50;99.90
18934;DHT22;9599;53.706;10.384;2023-07-30T14:50:10;18.80;99.90
18934;DHT22;9599;53.706;10.384;2023-07-30T14:52:39;18.90;99.90
18934;DHT22;9599;53.706;10.384;2023-07-30T14:55:07;19.00;99.90
18934;DHT22;9599;53.706;10.384;2023-07-30T14:57:36;19.00;99.90
18934;DHT22;9599;53.706;10.384;2023-07-30T15:00:04;19.10;99.90
18934;DHT22;9599;53.706;10.384;2023-07-30T15:02:34;19.20;99.90
18934;DHT22;9599;53.706;10.384;2023-07-30T15:05:02;19.30;99.90
18934;DHT22;9599;53.706;10.384;2023-07-30T15:07:30;19.30;99.90
18934;DHT22;9599;53.706;10.384;2023-07-30T15:09:59;19.20;99.90
18934;DHT22;9599;53.706;10.384;2023-07-30T15:12:27;19.20;99.90
18934;DHT22;9599;53.706;10.384;2023-07-30T15:14:58;19.40;99.90
18934;DHT22;9599;53.706;10.384;2023-07-30T15:17:26;19.60;99.90
18934;DHT22;9599;53.706;10.384;2023-07-30T15:19:54;19.70;99.90
18934;DHT22;9599;53.706;10.384;2023-07-30T15:22:22;19.80;99.90
18934;DHT22;9599;53.706;10.384;2023-07-30T15:24:50;19.80;99.90
18934;DHT22;9599;53.706;10.384;2023-07-30T15:27:19;19.80;99.90
18934;DHT22;9599;53.706;10.384;2023-07-30T15:29:47;19.80;99.90
18934;DHT22;9599;53.706;10.384;2023-07-30T15:32:15;19.90;99.90
18934;DHT22;9599;53.706;10.384;2023-07-30T15:34:43;20.00;99.90
18934;DHT22;9599;53.706;10.384;2023-07-30T15:37:11;19.90;99.90
18934;DHT22;9599;53.706;10.384;2023-07-30T15:39:39;19.90;99.90